sensor_id;sensor_type;location;lat;lon;timestamp;P1;durP1;ratioP1;P2;durP2;ratioP2
20982;SDS011;10650;51.528;6.748;2023-02-28T00:00:03;6.78;;;5.68;;
20982;SDS011;10650;51.528;6.748;2023-02-28T00:02:36;7.28;;;5.32;;
20982;SDS011;10650;51.528;6.748;2023-02-28T00:05:04;8.10;;;5.40;;
20982;SDS011;10650;51.528;6.748;2023-02-28T00:07:33;7.50;;;5.20;;
20982;SDS011;10650;51.528;6.748;2023-02-28T00:10:01;6.28;;;5.40;;
20982;SDS011;10650;51.528;6.748;2023-02-28T00:12:30;7.68;;;5.28;;
20982;SDS011;10650;51.528;6.748;2023-02-28T00:14:57;8.57;;;5.90;;
20982;SDS011;10650;51.528;6.748;2023-02-28T00:17:26;8.05;;;5.10;;
20982;SDS011;10650;51.528;6.748;2023-02-28T00:19:54;6.90;;;5.22;;
20982;SDS011;10650;51.528;6.748;2023-02-28T00:22:23;6.35;;;5.13;;
20982;SDS011;10650;51.528;6.748;2023-02-28T00:24:50;8.55;;;5.22;;
20982;SDS011;10650;51.528;6.748;2023-02-28T00:27:18;7.45;;;5.20;;
20982;SDS011;10650;51.528;6.748;2023-02-28T00:29:46;7.63;;;5.05;;
20982;SDS011;10650;51.528;6.748;2023-02-28T00:32:14;9.50;;;5.80;;
20982;SDS011;10650;51.528;6.748;2023-02-28T00:34:43;8.05;;;5.35;;
20982;SDS011;10650;51.528;6.748;2023-02-28T00:37:11;8.85;;;5.88;;
20982;SDS011;10650;51.528;6.748;2023-02-28T00:39:39;6.35;;;5.50;;
20982;SDS011;10650;51.528;6.748;2023-02-28T00:42:07;8.40;;;6.28;;
20982;SDS011;10650;51.528;6.748;2023-02-28T00:44:35;11.02;;;5.72;;
20982;SDS011;10650;51.528;6.748;2023-02-28T00:47:03;8.18;;;5.43;;
20982;SDS011;10650;51.528;6.748;2023-02-28T00:49:31;8.77;;;5.88;;
20982;SDS011;10650;51.528;6.748;2023-02-28T00:52:00;9.10;;;6.18;;
20982;SDS011;10650;51.528;6.748;2023-02-28T00:54:28;9.00;;;6.10;;
20982;SDS011;10650;51.528;6.748;2023-02-28T00:56:56;7.60;;;6.00;;
20982;SDS011;10650;51.528;6.748;2023-02-28T00:59:24;9.73;;;6.13;;
20982;SDS011;10650;51.528;6.748;2023-02-28T01:01:52;8.95;;;5.63;;
20982;SDS011;10650;51.528;6.748;2023-02-28T01:04:19;7.72;;;6.18;;
20982;SDS011;10650;51.528;6.748;2023-02-28T01:06:47;9.57;;;5.75;;
20982;SDS011;10650;51.528;6.748;2023-02-28T01:09:16;8.18;;;6.13;;
20982;SDS011;10650;51.528;6.748;2023-02-28T01:11:44;7.95;;;5.50;;
20982;SDS011;10650;51.528;6.748;2023-02-28T01:14:12;7.70;;;5.60;;
20982;SDS011;10650;51.528;6.748;2023-02-28T01:16:41;8.48;;;6.10;;
20982;SDS011;10650;51.528;6.748;2023-02-28T01:19:09;8.85;;;5.75;;
20982;SDS011;10650;51.528;6.748;2023-02-28T01:21:37;8.18;;;5.80;;
20982;SDS011;10650;51.528;6.748;2023-02-28T01:24:05;7.22;;;5.65;;
20982;SDS011;10650;51.528;6.748;2023-02-28T01:26:35;7.63;;;5.90;;
20982;SDS011;10650;51.528;6.748;2023-02-28T01:29:03;7.43;;;6.03;;
20982;SDS011;10650;51.528;6.748;2023-02-28T01:31:30;7.35;;;5.63;;
20982;SDS011;10650;51.528;6.748;2023-02-28T01:33:58;6.93;;;5.68;;
20982;SDS011;10650;51.528;6.748;2023-02-28T01:36:26;8.57;;;6.22;;
20982;SDS011;10650;51.528;6.748;2023-02-28T01:38:54;8.90;;;5.50;;
20982;SDS011;10650;51.528;6.748;2023-02-28T01:41:22;7.68;;;5.47;;
20982;SDS011;10650;51.528;6.748;2023-02-28T01:43:58;8.13;;;5.90;;
20982;SDS011;10650;51.528;6.748;2023-02-28T01:46:29;8.75;;;5.72;;
20982;SDS011;10650;51.528;6.748;2023-02-28T01:49:00;7.32;;;5.72;;
20982;SDS011;10650;51.528;6.748;2023-02-28T01:51:33;7.55;;;5.63;;
20982;SDS011;10650;51.528;6.748;2023-02-28T01:56:40;8.48;;;5.60;;
20982;SDS011;10650;51.528;6.748;2023-02-28T01:59:14;8.18;;;5.60;;
20982;SDS011;10650;51.528;6.748;2023-02-28T02:01:48;7.93;;;5.60;;
20982;SDS011;10650;51.528;6.748;2023-02-28T02:04:17;7.72;;;5.60;;
20982;SDS011;10650;51.528;6.748;2023-02-28T02:06:45;7.18;;;5.53;;
20982;SDS011;10650;51.528;6.748;2023-02-28T02:09:15;9.18;;;5.53;;
20982;SDS011;10650;51.528;6.748;2023-02-28T02:11:43;7.10;;;5.55;;
20982;SDS011;10650;51.528;6.748;2023-02-28T02:14:17;6.72;;;5.07;;
20982;SDS011;10650;51.528;6.748;2023-02-28T02:17:01;7.32;;;5.22;;
20982;SDS011;10650;51.528;6.748;2023-02-28T02:19:44;9.65;;;5.63;;
20982;SDS011;10650;51.528;6.748;2023-02-28T02:22:46;5.80;;;5.10;;
20982;SDS011;10650;51.528;6.748;2023-02-28T02:25:34;7.65;;;5.00;;
20982;SDS011;10650;51.528;6.748;2023-02-28T02:28:20;9.20;;;5.57;;
20982;SDS011;10650;51.528;6.748;2023-02-28T02:31:25;8.27;;;5.53;;
20982;SDS011;10650;51.528;6.748;2023-02-28T02:34:19;7.25;;;5.00;;
20982;SDS011;10650;51.528;6.748;2023-02-28T02:36:56;7.32;;;5.22;;
20982;SDS011;10650;51.528;6.748;2023-02-28T02:39:31;5.40;;;4.63;;
20982;SDS011;10650;51.528;6.748;2023-02-28T02:42:24;6.35;;;5.43;;
20982;SDS011;10650;51.528;6.748;2023-02-28T02:44:58;7.30;;;4.93;;
20982;SDS011;10650;51.528;6.748;2023-02-28T02:47:29;7.55;;;5.32;;
20982;SDS011;10650;51.528;6.748;2023-02-28T02:50:01;7.38;;;5.00;;
20982;SDS011;10650;51.528;6.748;2023-02-28T02:52:34;6.35;;;5.00;;
20982;SDS011;10650;51.528;6.748;2023-02-28T02:55:06;8.68;;;5.60;;
20982;SDS011;10650;51.528;6.748;2023-02-28T02:57:38;9.02;;;6.00;;
20982;SDS011;10650;51.528;6.748;2023-02-28T03:00:12;8.13;;;5.10;;
20982;SDS011;10650;51.528;6.748;2023-02-28T03:02:44;6.65;;;5.22;;
20982;SDS011;10650;51.528;6.748;2023-02-28T03:05:17;13.52;;;5.60;;
20982;SDS011;10650;51.528;6.748;2023-02-28T03:07:47;7.60;;;5.78;;
20982;SDS011;10650;51.528;6.748;2023-02-28T03:10:28;10.57;;;5.97;;
20982;SDS011;10650;51.528;6.748;2023-02-28T03:13:03;8.20;;;5.45;;
20982;SDS011;10650;51.528;6.748;2023-02-28T03:15:40;7.72;;;5.10;;
20982;SDS011;10650;51.528;6.748;2023-02-28T03:18:19;7.30;;;4.95;;
20982;SDS011;10650;51.528;6.748;2023-02-28T03:20:55;7.68;;;4.40;;
20982;SDS011;10650;51.528;6.748;2023-02-28T03:23:34;12.35;;;5.10;;
20982;SDS011;10650;51.528;6.748;2023-02-28T03:26:12;7.57;;;4.63;;
20982;SDS011;10650;51.528;6.748;2023-02-28T03:28:48;5.82;;;4.45;;
20982;SDS011;10650;51.528;6.748;2023-02-28T03:31:25;6.28;;;4.55;;
20982;SDS011;10650;51.528;6.748;2023-02-28T03:33:59;7.20;;;4.50;;
20982;SDS011;10650;51.528;6.748;2023-02-28T03:36:34;8.45;;;4.57;;
20982;SDS011;10650;51.528;6.748;2023-02-28T03:39:11;6.55;;;4.40;;
20982;SDS011;10650;51.528;6.748;2023-02-28T03:41:51;6.85;;;4.47;;
20982;SDS011;10650;51.528;6.748;2023-02-28T03:46:55;5.68;;;4.00;;
20982;SDS011;10650;51.528;6.748;2023-02-28T03:49:28;5.05;;;3.90;;
20982;SDS011;10650;51.528;6.748;2023-02-28T03:52:02;7.47;;;4.30;;
20982;SDS011;10650;51.528;6.748;2023-02-28T03:54:34;5.45;;;3.92;;
20982;SDS011;10650;51.528;6.748;2023-02-28T03:57:10;8.35;;;4.05;;
20982;SDS011;10650;51.528;6.748;2023-02-28T03:59:44;5.88;;;4.30;;
20982;SDS011;10650;51.528;6.748;2023-02-28T04:02:15;5.22;;;3.72;;
20982;SDS011;10650;51.528;6.748;2023-02-28T04:04:43;7.72;;;4.45;;
20982;SDS011;10650;51.528;6.748;2023-02-28T04:07:16;6.60;;;3.72;;
20982;SDS011;10650;51.528;6.748;2023-02-28T04:09:44;5.95;;;3.67;;
20982;SDS011;10650;51.528;6.748;2023-02-28T04:12:12;7.53;;;4.82;;
20982;SDS011;10650;51.528;6.748;2023-02-28T04:14:39;5.90;;;3.72;;
20982;SDS011;10650;51.528;6.748;2023-02-28T04:17:07;6.82;;;4.00;;
20982;SDS011;10650;51.528;6.748;2023-02-28T04:19:35;5.90;;;4.15;;
20982;SDS011;10650;51.528;6.748;2023-02-28T04:22:03;4.70;;;3.83;;
20982;SDS011;10650;51.528;6.748;2023-02-28T04:24:32;5.28;;;3.85;;
20982;SDS011;10650;51.528;6.748;2023-02-28T04:27:00;6.20;;;4.57;;
20982;SDS011;10650;51.528;6.748;2023-02-28T04:29:29;5.65;;;3.90;;
20982;SDS011;10650;51.528;6.748;2023-02-28T04:31:59;5.18;;;3.78;;
20982;SDS011;10650;51.528;6.748;2023-02-28T04:34:28;5.57;;;4.00;;
20982;SDS011;10650;51.528;6.748;2023-02-28T04:37:00;8.88;;;4.43;;
20982;SDS011;10650;51.528;6.748;2023-02-28T04:39:40;5.10;;;3.83;;
20982;SDS011;10650;51.528;6.748;2023-02-28T04:42:09;6.97;;;4.00;;
20982;SDS011;10650;51.528;6.748;2023-02-28T04:44:37;6.18;;;3.90;;
20982;SDS011;10650;51.528;6.748;2023-02-28T04:47:05;6.57;;;3.53;;
20982;SDS011;10650;51.528;6.748;2023-02-28T04:49:33;4.90;;;3.78;;
20982;SDS011;10650;51.528;6.748;2023-02-28T04:52:00;6.22;;;3.60;;
20982;SDS011;10650;51.528;6.748;2023-02-28T04:54:28;4.55;;;3.50;;
20982;SDS011;10650;51.528;6.748;2023-02-28T04:56:57;8.73;;;3.88;;
20982;SDS011;10650;51.528;6.748;2023-02-28T04:59:25;4.07;;;3.40;;
20982;SDS011;10650;51.528;6.748;2023-02-28T05:01:53;5.45;;;3.70;;
20982;SDS011;10650;51.528;6.748;2023-02-28T05:04:20;5.93;;;3.60;;
20982;SDS011;10650;51.528;6.748;2023-02-28T05:06:48;5.47;;;3.97;;
20982;SDS011;10650;51.528;6.748;2023-02-28T05:09:16;5.15;;;3.60;;
20982;SDS011;10650;51.528;6.748;2023-02-28T05:11:44;4.28;;;3.33;;
20982;SDS011;10650;51.528;6.748;2023-02-28T05:14:13;5.03;;;3.90;;
20982;SDS011;10650;51.528;6.748;2023-02-28T05:16:41;6.75;;;4.10;;
20982;SDS011;10650;51.528;6.748;2023-02-28T05:19:09;6.18;;;3.90;;
20982;SDS011;10650;51.528;6.748;2023-02-28T05:21:38;5.95;;;3.60;;
20982;SDS011;10650;51.528;6.748;2023-02-28T05:24:08;8.57;;;4.32;;
20982;SDS011;10650;51.528;6.748;2023-02-28T05:26:39;6.57;;;4.00;;
20982;SDS011;10650;51.528;6.748;2023-02-28T05:29:08;7.70;;;4.07;;
20982;SDS011;10650;51.528;6.748;2023-02-28T05:31:38;8.55;;;4.18;;
20982;SDS011;10650;51.528;6.748;2023-02-28T05:34:06;9.13;;;4.50;;
20982;SDS011;10650;51.528;6.748;2023-02-28T05:36:34;5.22;;;3.95;;
20982;SDS011;10650;51.528;6.748;2023-02-28T05:39:04;6.40;;;3.92;;
20982;SDS011;10650;51.528;6.748;2023-02-28T05:41:33;5.72;;;3.60;;
20982;SDS011;10650;51.528;6.748;2023-02-28T05:44:01;7.10;;;3.72;;
20982;SDS011;10650;51.528;6.748;2023-02-28T05:46:28;6.25;;;3.90;;
20982;SDS011;10650;51.528;6.748;2023-02-28T05:48:57;5.95;;;3.53;;
20982;SDS011;10650;51.528;6.748;2023-02-28T05:51:27;5.32;;;3.60;;
20982;SDS011;10650;51.528;6.748;2023-02-28T05:53:58;8.30;;;3.92;;
20982;SDS011;10650;51.528;6.748;2023-02-28T05:56:26;14.07;;;4.38;;
20982;SDS011;10650;51.528;6.748;2023-02-28T05:58:54;8.95;;;4.00;;
20982;SDS011;10650;51.528;6.748;2023-02-28T06:01:23;14.52;;;4.55;;
20982;SDS011;10650;51.528;6.748;2023-02-28T06:03:59;9.40;;;4.15;;
20982;SDS011;10650;51.528;6.748;2023-02-28T06:06:27;8.30;;;4.32;;
20982;SDS011;10650;51.528;6.748;2023-02-28T06:08:56;5.85;;;3.95;;
20982;SDS011;10650;51.528;6.748;2023-02-28T06:11:24;18.15;;;4.75;;
20982;SDS011;10650;51.528;6.748;2023-02-28T06:13:55;7.85;;;4.60;;
20982;SDS011;10650;51.528;6.748;2023-02-28T06:16:23;10.85;;;4.80;;
20982;SDS011;10650;51.528;6.748;2023-02-28T06:18:51;11.60;;;4.50;;
20982;SDS011;10650;51.528;6.748;2023-02-28T06:21:23;12.38;;;5.32;;
20982;SDS011;10650;51.528;6.748;2023-02-28T06:23:51;9.45;;;4.60;;
20982;SDS011;10650;51.528;6.748;2023-02-28T06:26:19;23.02;;;12.02;;
20982;SDS011;10650;51.528;6.748;2023-02-28T06:28:47;53.63;;;25.17;;
20982;SDS011;10650;51.528;6.748;2023-02-28T06:31:16;11.85;;;5.82;;
20982;SDS011;10650;51.528;6.748;2023-02-28T06:33:45;10.25;;;5.55;;
20982;SDS011;10650;51.528;6.748;2023-02-28T06:36:14;12.95;;;5.45;;
20982;SDS011;10650;51.528;6.748;2023-02-28T06:38:45;10.48;;;6.00;;
20982;SDS011;10650;51.528;6.748;2023-02-28T06:41:17;8.07;;;5.35;;
20982;SDS011;10650;51.528;6.748;2023-02-28T06:43:45;8.45;;;5.03;;
20982;SDS011;10650;51.528;6.748;2023-02-28T06:46:13;10.82;;;5.40;;
20982;SDS011;10650;51.528;6.748;2023-02-28T06:48:42;10.35;;;5.10;;
20982;SDS011;10650;51.528;6.748;2023-02-28T06:51:12;8.27;;;5.60;;
20982;SDS011;10650;51.528;6.748;2023-02-28T06:53:42;8.50;;;5.10;;
20982;SDS011;10650;51.528;6.748;2023-02-28T06:56:12;8.45;;;5.25;;
20982;SDS011;10650;51.528;6.748;2023-02-28T06:58:41;7.38;;;5.13;;
20982;SDS011;10650;51.528;6.748;2023-02-28T07:01:09;8.88;;;4.93;;
20982;SDS011;10650;51.528;6.748;2023-02-28T07:03:36;9.57;;;5.07;;
20982;SDS011;10650;51.528;6.748;2023-02-28T07:06:05;7.47;;;5.45;;
20982;SDS011;10650;51.528;6.748;2023-02-28T07:08:33;13.55;;;7.13;;
20982;SDS011;10650;51.528;6.748;2023-02-28T07:11:01;10.60;;;6.35;;
20982;SDS011;10650;51.528;6.748;2023-02-28T07:13:31;10.38;;;5.45;;
20982;SDS011;10650;51.528;6.748;2023-02-28T07:16:00;9.95;;;5.43;;
20982;SDS011;10650;51.528;6.748;2023-02-28T07:18:32;8.50;;;5.20;;
20982;SDS011;10650;51.528;6.748;2023-02-28T07:21:01;8.80;;;5.28;;
20982;SDS011;10650;51.528;6.748;2023-02-28T07:23:30;10.57;;;6.03;;
20982;SDS011;10650;51.528;6.748;2023-02-28T07:25:58;8.73;;;5.07;;
20982;SDS011;10650;51.528;6.748;2023-02-28T07:28:31;9.10;;;5.93;;
20982;SDS011;10650;51.528;6.748;2023-02-28T07:31:03;9.25;;;5.57;;
20982;SDS011;10650;51.528;6.748;2023-02-28T07:33:32;7.75;;;5.20;;
20982;SDS011;10650;51.528;6.748;2023-02-28T07:36:03;10.27;;;5.50;;
20982;SDS011;10650;51.528;6.748;2023-02-28T07:38:33;8.27;;;5.10;;
20982;SDS011;10650;51.528;6.748;2023-02-28T07:41:01;7.85;;;4.80;;
20982;SDS011;10650;51.528;6.748;2023-02-28T07:43:33;7.22;;;5.05;;
20982;SDS011;10650;51.528;6.748;2023-02-28T07:46:01;8.73;;;5.85;;
20982;SDS011;10650;51.528;6.748;2023-02-28T07:48:30;7.63;;;5.10;;
20982;SDS011;10650;51.528;6.748;2023-02-28T07:50:58;8.95;;;5.70;;
20982;SDS011;10650;51.528;6.748;2023-02-28T07:53:27;7.57;;;5.00;;
20982;SDS011;10650;51.528;6.748;2023-02-28T07:55:55;8.43;;;5.25;;
20982;SDS011;10650;51.528;6.748;2023-02-28T07:58:23;7.55;;;5.57;;
20982;SDS011;10650;51.528;6.748;2023-02-28T08:00:53;15.98;;;9.18;;
20982;SDS011;10650;51.528;6.748;2023-02-28T08:03:21;11.93;;;5.45;;
20982;SDS011;10650;51.528;6.748;2023-02-28T08:05:50;12.27;;;5.30;;
20982;SDS011;10650;51.528;6.748;2023-02-28T08:08:18;7.10;;;4.72;;
20982;SDS011;10650;51.528;6.748;2023-02-28T08:10:46;7.90;;;5.55;;
20982;SDS011;10650;51.528;6.748;2023-02-28T08:13:14;7.90;;;5.40;;
20982;SDS011;10650;51.528;6.748;2023-02-28T08:15:41;7.03;;;5.18;;
20982;SDS011;10650;51.528;6.748;2023-02-28T08:18:12;10.27;;;5.22;;
20982;SDS011;10650;51.528;6.748;2023-02-28T08:20:40;7.35;;;5.20;;
20982;SDS011;10650;51.528;6.748;2023-02-28T08:23:08;7.93;;;4.90;;
20982;SDS011;10650;51.528;6.748;2023-02-28T08:25:36;9.23;;;4.90;;
20982;SDS011;10650;51.528;6.748;2023-02-28T08:28:03;7.85;;;5.00;;
20982;SDS011;10650;51.528;6.748;2023-02-28T08:30:31;7.63;;;4.82;;
20982;SDS011;10650;51.528;6.748;2023-02-28T08:32:59;5.88;;;4.65;;
20982;SDS011;10650;51.528;6.748;2023-02-28T08:35:29;6.00;;;4.40;;
20982;SDS011;10650;51.528;6.748;2023-02-28T08:37:57;8.30;;;4.60;;
20982;SDS011;10650;51.528;6.748;2023-02-28T08:40:25;4.65;;;4.15;;
20982;SDS011;10650;51.528;6.748;2023-02-28T08:42:52;7.43;;;4.45;;
20982;SDS011;10650;51.528;6.748;2023-02-28T08:45:20;6.38;;;4.40;;
20982;SDS011;10650;51.528;6.748;2023-02-28T08:47:48;8.98;;;6.07;;
20982;SDS011;10650;51.528;6.748;2023-02-28T08:50:27;4.97;;;4.03;;
20982;SDS011;10650;51.528;6.748;2023-02-28T08:52:56;6.20;;;4.30;;
20982;SDS011;10650;51.528;6.748;2023-02-28T08:55:24;4.80;;;4.30;;
20982;SDS011;10650;51.528;6.748;2023-02-28T08:57:52;5.38;;;3.90;;
20982;SDS011;10650;51.528;6.748;2023-02-28T09:00:21;6.15;;;3.80;;
20982;SDS011;10650;51.528;6.748;2023-02-28T09:02:49;6.22;;;3.88;;
20982;SDS011;10650;51.528;6.748;2023-02-28T09:05:17;5.43;;;3.28;;
20982;SDS011;10650;51.528;6.748;2023-02-28T09:07:47;4.85;;;3.65;;
20982;SDS011;10650;51.528;6.748;2023-02-28T09:10:15;3.83;;;3.38;;
20982;SDS011;10650;51.528;6.748;2023-02-28T09:12:43;4.13;;;3.47;;
20982;SDS011;10650;51.528;6.748;2023-02-28T09:15:13;8.13;;;4.20;;
20982;SDS011;10650;51.528;6.748;2023-02-28T09:17:40;6.22;;;3.60;;
20982;SDS011;10650;51.528;6.748;2023-02-28T09:20:12;3.55;;;3.20;;
20982;SDS011;10650;51.528;6.748;2023-02-28T09:22:39;4.38;;;3.38;;
20982;SDS011;10650;51.528;6.748;2023-02-28T09:25:09;6.03;;;3.90;;
20982;SDS011;10650;51.528;6.748;2023-02-28T09:27:36;5.03;;;3.75;;
20982;SDS011;10650;51.528;6.748;2023-02-28T09:30:04;2.85;;;2.50;;
20982;SDS011;10650;51.528;6.748;2023-02-28T09:32:33;3.47;;;2.45;;
20982;SDS011;10650;51.528;6.748;2023-02-28T09:35:01;4.15;;;2.50;;
20982;SDS011;10650;51.528;6.748;2023-02-28T09:37:29;3.22;;;2.20;;
20982;SDS011;10650;51.528;6.748;2023-02-28T09:39:57;5.25;;;2.55;;
20982;SDS011;10650;51.528;6.748;2023-02-28T09:42:29;4.30;;;2.40;;
20982;SDS011;10650;51.528;6.748;2023-02-28T09:44:59;2.63;;;2.40;;
20982;SDS011;10650;51.528;6.748;2023-02-28T09:47:29;4.70;;;2.60;;
20982;SDS011;10650;51.528;6.748;2023-02-28T09:50:03;2.78;;;2.15;;
20982;SDS011;10650;51.528;6.748;2023-02-28T09:52:38;3.55;;;2.38;;
20982;SDS011;10650;51.528;6.748;2023-02-28T09:55:19;2.92;;;2.30;;
20982;SDS011;10650;51.528;6.748;2023-02-28T09:57:53;5.22;;;2.22;;
20982;SDS011;10650;51.528;6.748;2023-02-28T10:00:24;3.47;;;2.13;;
20982;SDS011;10650;51.528;6.748;2023-02-28T10:03:01;3.15;;;2.10;;
20982;SDS011;10650;51.528;6.748;2023-02-28T10:05:35;2.97;;;2.45;;
20982;SDS011;10650;51.528;6.748;2023-02-28T10:08:12;3.22;;;2.20;;
20982;SDS011;10650;51.528;6.748;2023-02-28T10:10:43;3.83;;;2.10;;
20982;SDS011;10650;51.528;6.748;2023-02-28T10:13:14;3.67;;;2.25;;
20982;SDS011;10650;51.528;6.748;2023-02-28T10:15:47;2.60;;;1.95;;
20982;SDS011;10650;51.528;6.748;2023-02-28T10:18:20;2.13;;;1.92;;
20982;SDS011;10650;51.528;6.748;2023-02-28T10:20:51;2.55;;;2.10;;
20982;SDS011;10650;51.528;6.748;2023-02-28T10:23:23;3.45;;;2.10;;
20982;SDS011;10650;51.528;6.748;2023-02-28T10:25:54;3.40;;;2.20;;
20982;SDS011;10650;51.528;6.748;2023-02-28T10:28:26;2.63;;;1.80;;
20982;SDS011;10650;51.528;6.748;2023-02-28T10:30:57;4.90;;;2.30;;
20982;SDS011;10650;51.528;6.748;2023-02-28T10:33:28;2.50;;;2.08;;
20982;SDS011;10650;51.528;6.748;2023-02-28T10:35:57;4.28;;;2.40;;
20982;SDS011;10650;51.528;6.748;2023-02-28T10:38:26;3.65;;;2.30;;
20982;SDS011;10650;51.528;6.748;2023-02-28T10:41:05;2.53;;;2.30;;
20982;SDS011;10650;51.528;6.748;2023-02-28T10:43:35;3.33;;;2.50;;
20982;SDS011;10650;51.528;6.748;2023-02-28T10:46:05;3.10;;;2.50;;
20982;SDS011;10650;51.528;6.748;2023-02-28T10:48:42;3.28;;;2.20;;
20982;SDS011;10650;51.528;6.748;2023-02-28T10:51:14;3.97;;;2.50;;
20982;SDS011;10650;51.528;6.748;2023-02-28T10:53:45;3.53;;;2.22;;
20982;SDS011;10650;51.528;6.748;2023-02-28T10:56:27;2.55;;;2.28;;
20982;SDS011;10650;51.528;6.748;2023-02-28T10:58:58;2.83;;;2.50;;
20982;SDS011;10650;51.528;6.748;2023-02-28T11:01:37;3.80;;;2.85;;
20982;SDS011;10650;51.528;6.748;2023-02-28T11:04:19;2.83;;;2.63;;
20982;SDS011;10650;51.528;6.748;2023-02-28T11:07:00;5.07;;;2.70;;
20982;SDS011;10650;51.528;6.748;2023-02-28T11:09:30;3.15;;;2.85;;
20982;SDS011;10650;51.528;6.748;2023-02-28T11:12:01;3.15;;;2.80;;
20982;SDS011;10650;51.528;6.748;2023-02-28T11:14:33;5.85;;;3.40;;
20982;SDS011;10650;51.528;6.748;2023-02-28T11:17:12;4.57;;;2.90;;
20982;SDS011;10650;51.528;6.748;2023-02-28T11:19:44;4.53;;;2.90;;
20982;SDS011;10650;51.528;6.748;2023-02-28T11:22:16;3.45;;;2.80;;
20982;SDS011;10650;51.528;6.748;2023-02-28T11:24:47;4.30;;;3.35;;
20982;SDS011;10650;51.528;6.748;2023-02-28T11:27:25;3.90;;;2.63;;
20982;SDS011;10650;51.528;6.748;2023-02-28T11:32:52;3.67;;;2.38;;
20982;SDS011;10650;51.528;6.748;2023-02-28T11:35:21;3.42;;;2.60;;
20982;SDS011;10650;51.528;6.748;2023-02-28T11:37:53;4.75;;;2.90;;
20982;SDS011;10650;51.528;6.748;2023-02-28T11:40:22;3.95;;;2.90;;
20982;SDS011;10650;51.528;6.748;2023-02-28T11:42:58;4.65;;;3.33;;
20982;SDS011;10650;51.528;6.748;2023-02-28T11:45:37;3.60;;;2.60;;
20982;SDS011;10650;51.528;6.748;2023-02-28T11:48:17;3.40;;;2.42;;
20982;SDS011;10650;51.528;6.748;2023-02-28T11:50:52;3.47;;;2.50;;
20982;SDS011;10650;51.528;6.748;2023-02-28T11:53:44;3.28;;;2.60;;
20982;SDS011;10650;51.528;6.748;2023-02-28T11:56:23;2.92;;;2.25;;
20982;SDS011;10650;51.528;6.748;2023-02-28T11:59:00;3.30;;;2.60;;
20982;SDS011;10650;51.528;6.748;2023-02-28T12:01:59;3.03;;;2.60;;
20982;SDS011;10650;51.528;6.748;2023-02-28T12:04:39;3.10;;;2.20;;
20982;SDS011;10650;51.528;6.748;2023-02-28T12:07:18;2.50;;;2.30;;
20982;SDS011;10650;51.528;6.748;2023-02-28T12:09:57;3.55;;;2.63;;
20982;SDS011;10650;51.528;6.748;2023-02-28T12:12:37;3.88;;;2.50;;
20982;SDS011;10650;51.528;6.748;2023-02-28T12:15:17;6.30;;;2.80;;
20982;SDS011;10650;51.528;6.748;2023-02-28T12:18:21;4.13;;;2.72;;
20982;SDS011;10650;51.528;6.748;2023-02-28T12:21:04;2.95;;;2.60;;
20982;SDS011;10650;51.528;6.748;2023-02-28T12:23:44;4.18;;;2.60;;
20982;SDS011;10650;51.528;6.748;2023-02-28T12:26:24;3.85;;;2.80;;
20982;SDS011;10650;51.528;6.748;2023-02-28T12:29:04;4.88;;;2.97;;
20982;SDS011;10650;51.528;6.748;2023-02-28T12:31:38;4.30;;;3.10;;
20982;SDS011;10650;51.528;6.748;2023-02-28T12:34:09;4.30;;;2.85;;
20982;SDS011;10650;51.528;6.748;2023-02-28T12:36:44;3.10;;;2.60;;
20982;SDS011;10650;51.528;6.748;2023-02-28T12:39:15;3.05;;;2.45;;
20982;SDS011;10650;51.528;6.748;2023-02-28T12:41:51;8.70;;;6.25;;
20982;SDS011;10650;51.528;6.748;2023-02-28T12:44:24;6.60;;;5.32;;
20982;SDS011;10650;51.528;6.748;2023-02-28T12:46:56;4.30;;;3.03;;
20982;SDS011;10650;51.528;6.748;2023-02-28T12:49:31;3.15;;;2.80;;
20982;SDS011;10650;51.528;6.748;2023-02-28T12:52:05;2.90;;;2.70;;
20982;SDS011;10650;51.528;6.748;2023-02-28T12:54:38;3.65;;;2.80;;
20982;SDS011;10650;51.528;6.748;2023-02-28T12:57:12;3.85;;;3.45;;
20982;SDS011;10650;51.528;6.748;2023-02-28T12:59:48;4.53;;;3.00;;
20982;SDS011;10650;51.528;6.748;2023-02-28T13:05:39;3.45;;;2.63;;
20982;SDS011;10650;51.528;6.748;2023-02-28T13:08:43;4.18;;;2.92;;
20982;SDS011;10650;51.528;6.748;2023-02-28T13:11:29;3.10;;;2.80;;
20982;SDS011;10650;51.528;6.748;2023-02-28T13:13:59;3.20;;;2.90;;
20982;SDS011;10650;51.528;6.748;2023-02-28T13:19:18;3.65;;;2.90;;
20982;SDS011;10650;51.528;6.748;2023-02-28T13:21:49;3.55;;;3.17;;
20982;SDS011;10650;51.528;6.748;2023-02-28T13:24:42;3.60;;;3.28;;
20982;SDS011;10650;51.528;6.748;2023-02-28T13:33:20;4.82;;;3.28;;
20982;SDS011;10650;51.528;6.748;2023-02-28T13:36:22;5.30;;;3.53;;
20982;SDS011;10650;51.528;6.748;2023-02-28T13:38:53;4.55;;;3.40;;
20982;SDS011;10650;51.528;6.748;2023-02-28T13:44:22;5.63;;;3.78;;
20982;SDS011;10650;51.528;6.748;2023-02-28T13:52:48;3.05;;;2.85;;
20982;SDS011;10650;51.528;6.748;2023-02-28T13:55:24;3.42;;;2.90;;
20982;SDS011;10650;51.528;6.748;2023-02-28T13:58:15;3.42;;;3.05;;
20982;SDS011;10650;51.528;6.748;2023-02-28T14:01:10;5.20;;;3.30;;
20982;SDS011;10650;51.528;6.748;2023-02-28T14:03:54;3.97;;;3.22;;
20982;SDS011;10650;51.528;6.748;2023-02-28T14:06:33;3.75;;;3.22;;
20982;SDS011;10650;51.528;6.748;2023-02-28T14:09:03;3.88;;;3.55;;
20982;SDS011;10650;51.528;6.748;2023-02-28T14:11:44;4.13;;;3.13;;
20982;SDS011;10650;51.528;6.748;2023-02-28T14:17:15;3.83;;;3.30;;
20982;SDS011;10650;51.528;6.748;2023-02-28T14:19:45;3.63;;;3.20;;
20982;SDS011;10650;51.528;6.748;2023-02-28T14:22:19;4.00;;;3.25;;
20982;SDS011;10650;51.528;6.748;2023-02-28T14:25:08;4.50;;;3.03;;
20982;SDS011;10650;51.528;6.748;2023-02-28T14:27:45;3.20;;;2.90;;
20982;SDS011;10650;51.528;6.748;2023-02-28T14:30:24;3.60;;;3.20;;
20982;SDS011;10650;51.528;6.748;2023-02-28T14:33:10;4.75;;;3.00;;
20982;SDS011;10650;51.528;6.748;2023-02-28T14:38:51;5.35;;;3.00;;
20982;SDS011;10650;51.528;6.748;2023-02-28T14:41:21;4.43;;;3.40;;
20982;SDS011;10650;51.528;6.748;2023-02-28T14:43:51;5.22;;;3.10;;
20982;SDS011;10650;51.528;6.748;2023-02-28T14:48:55;6.97;;;4.90;;
20982;SDS011;10650;51.528;6.748;2023-02-28T14:51:23;6.07;;;3.58;;
20982;SDS011;10650;51.528;6.748;2023-02-28T14:53:52;5.18;;;3.17;;
20982;SDS011;10650;51.528;6.748;2023-02-28T14:56:26;3.83;;;3.40;;
20982;SDS011;10650;51.528;6.748;2023-02-28T14:58:57;6.57;;;3.85;;
20982;SDS011;10650;51.528;6.748;2023-02-28T15:01:25;4.00;;;3.45;;
20982;SDS011;10650;51.528;6.748;2023-02-28T15:03:59;5.32;;;3.63;;
20982;SDS011;10650;51.528;6.748;2023-02-28T15:06:29;4.05;;;3.42;;
20982;SDS011;10650;51.528;6.748;2023-02-28T15:09:07;4.50;;;3.22;;
20982;SDS011;10650;51.528;6.748;2023-02-28T15:11:36;6.20;;;2.92;;
20982;SDS011;10650;51.528;6.748;2023-02-28T15:14:06;4.97;;;3.08;;
20982;SDS011;10650;51.528;6.748;2023-02-28T15:16:35;3.30;;;3.00;;
20982;SDS011;10650;51.528;6.748;2023-02-28T15:19:11;5.43;;;3.38;;
20982;SDS011;10650;51.528;6.748;2023-02-28T15:21:48;5.57;;;3.88;;
20982;SDS011;10650;51.528;6.748;2023-02-28T15:24:19;5.03;;;3.70;;
20982;SDS011;10650;51.528;6.748;2023-02-28T15:26:53;5.03;;;4.43;;
20982;SDS011;10650;51.528;6.748;2023-02-28T15:29:25;5.55;;;3.40;;
20982;SDS011;10650;51.528;6.748;2023-02-28T15:31:55;7.60;;;5.78;;
20982;SDS011;10650;51.528;6.748;2023-02-28T15:34:29;6.78;;;5.97;;
20982;SDS011;10650;51.528;6.748;2023-02-28T15:39:58;4.80;;;3.80;;
20982;SDS011;10650;51.528;6.748;2023-02-28T15:42:32;4.20;;;3.78;;
20982;SDS011;10650;51.528;6.748;2023-02-28T15:44:59;5.95;;;5.28;;
20982;SDS011;10650;51.528;6.748;2023-02-28T15:47:35;6.63;;;5.28;;
20982;SDS011;10650;51.528;6.748;2023-02-28T15:50:09;3.45;;;3.13;;
20982;SDS011;10650;51.528;6.748;2023-02-28T15:52:42;4.57;;;3.65;;
20982;SDS011;10650;51.528;6.748;2023-02-28T15:55:12;20.17;;;12.98;;